KBDE

Baudette International Airport

Baudette, Minnesota, USA
METAR KBDE 190253Z AUTO 16006KT 10SM CLR M04/M05 A2959 RMK AO2 SLP038 T10391050 58018
Observed Flight Rules
Jan-19 @ 02:53 UTC (56 minutes ago) Visual Flight Rules
Wind Visibility Clouds
160° at 6 knots 10 miles
  • Clear skies
Temperatures Readings
Current -4°C / 25°F
Dewpoint -5°C / 23°F
Humidity 93%
Altimeter 29.59" Hg
Pressure 1003.8 hPa
Elevation 329
METAR KBDE 190253Z AUTO 16006KT 10SM CLR M04/M05 A2959 RMK AO2 SLP038 T10391050 58018
Observed Flight Rules
Jan-19 @ 02:53 UTC
(56 minutes ago)
VFR
Wind Visibility
160° at 6 knots 10 miles
Clouds
  • Clear skies
Temperature Dewpoint
-4°C / 25°F -5°C / 23°F
Humidity Altimeter Pressure
93% 29.59" Hg 1003.8 hPa